Airfield :
LOGIN :

Register | Disclaimer

   EN    FR    IT 

 










Legend :    VFR   Marginal VFR   IFR   Intensive IFR   Very Intensive IFR
Visi :
Ceiling :
>= 8 km
>= 3000ft
5 to 8 km
1000 to 3000 ft
1500m to 5 km
500 to 1000 ft
800 to 1500m
200 to 500 ft
< 800m
< 200 ft
Symbols :   Thunderstorms  Fog  Heavy snow  Heavy precipitations  Wind > 20 kt
SIGMETs :     Misc.  Thunderstorms  Icing  Turbulence  Mountain Waves  Volcanic Ashes







- Airport Elevation : 219 ft
- IATA code : DNR
- Download approach charts


LFRD - Dinard

CURRENT METAR :
  • 210100Z AUTO 20014KT 9999 FEW021 SCT064 BKN074 14/12 Q1008 BECMG 21015G25KT

EXPIRED METARs :
  • 210030Z AUTO 21013KT CAVOK 14/12 Q1007 BECMG 21015G25KT
  • 210000Z AUTO 22018KT 9999 -RADZ FEW013 BKN043 OVC050 14/12 Q1008 BECMG 21015G25KT
  • 202330Z AUTO 25019G31KT 5000 -RA BR BKN008 BKN013 BKN023 14/13 Q1007 BECMG BKN025
  • 202300Z AUTO 19017KT 9999 -RA BKN009 OVC016 16/15 Q1006 BECMG 21015G25KT BKN025
  • 202230Z AUTO 18019G30KT 9999 -DZ BKN011 BKN021 OVC028 16/15 Q1006 TEMPO 3000 RA BECMG BKN025
  • 202200Z AUTO 19024KT 9999 FEW016 BKN028 OVC090 17/14 Q1007 TEMPO 3000 RA BKN008 BECMG 21015G25KT

TAF TAF LFRD
Valid from the 21 at 00:00 until the 22 at 00:00 UTC


202300Z 2100/2124 19020G35KT 5000 RA BKN015
BECMG 2100/2102 21015G25KT 9999 NSW BKN025
BECMG 2106/2108 22020G35KT
TEMPO 2109/2124 4000 SHRA BKN020CB
PROB30 2110/2124 3000 TSRA
BECMG 2121/2124 26020G35KT
ATIS : +33 2 99 16 81 50
No reported NOTAMs for that airfield.
2 SIGMETs reported for the Brest FIR (LFRR) :
 
Severe turbulence
LFRR SIGMET 6 VALID 202300/210300 LFPW
LFRR BREST FIR/UIR SEV TURB FCST WI N4915 W00615 - N5000 W00200 - N5000 W00015 - N4845 W00015 - N4700 W00415 SFC/FL060 MOV E 25KT NC=
Severe turbulence
LFRR SIGMET 5 VALID 202300/210300 LFPW
LFRR BREST FIR/UIR SEV TURB FCST NW OF LINE N5000 W00100 - N4545 W00800 FL180/280 MOV E 25KT NC=



MET'MAP, your aeronautical weather chart ! - Copyright ORBIFLY December 2007 - Disclaimer

ORBIFLY MET'MAP TEAM :

Programming & Development : Alexandra Zaïnal
Concept & Development : Baudouin d'Aumeries
Co-Development & Prog : Marc-Olivier Méhu
Technical & hardware support : Manuel Goepfert

Contact : metmap@orbifly.com




SOURCES & CREDITS :

   NOAA